Healing Springs, North Carolina
Current Conditions -  °F | °C
As of 7:15 AM on Wednesday 28 Jan 2015 (Local Time) from KHBI Reporting Station
Clear Clear  
Wind Chill: 24°   Ceiling: Unl
Heat Index: 24°   Visibility: 10mi
Dew Point: 14°   Wind: 0mph
Humidity: 66%   Direction: NA
Pressure: 30.2"   Gusts: NA
Location:  35.6015°N, 80.0858°W
Report Text: KHBI 281215Z AUTO 00000KT 10SM CLR M04/M10 A3020 RMK AO2 T10421098
Loading
Personal Weather Stations






























Interactive Weather Map New forecast layout! Learn more

10-Day Weather Forecast

Advertisements
Track Severe Weather on mobile